createdAt,value
2018-05-26T00:00:20.300Z,16.71
2018-05-26T00:01:20.536Z,16.71
2018-05-26T00:02:20.765Z,16.75
2018-05-26T00:03:21.000Z,16.56
2018-05-26T00:04:21.229Z,16.72
2018-05-26T00:05:21.457Z,16.68
2018-05-26T00:06:21.689Z,16.58
2018-05-26T00:07:21.916Z,16.66
2018-05-26T00:08:22.145Z,16.72
2018-05-26T00:09:22.377Z,16.71
2018-05-26T00:10:22.606Z,16.61
2018-05-26T00:11:22.837Z,16.74
2018-05-26T00:12:23.069Z,16.54
2018-05-26T00:13:23.300Z,16.65
2018-05-26T00:14:23.532Z,16.64
2018-05-26T00:15:23.762Z,16.66
2018-05-26T00:16:23.993Z,16.64
2018-05-26T00:17:24.223Z,16.47
2018-05-26T00:18:24.452Z,16.66
2018-05-26T00:19:24.692Z,16.51
2018-05-26T00:20:24.917Z,16.60
2018-05-26T00:21:25.149Z,16.65
2018-05-26T00:22:25.381Z,16.56
2018-05-26T00:23:25.607Z,16.64
2018-05-26T00:24:25.855Z,16.65
2018-05-26T00:25:26.076Z,16.65
2018-05-26T00:26:26.304Z,16.61
2018-05-26T00:27:26.535Z,16.60
2018-05-26T00:28:26.766Z,16.65
2018-05-26T00:29:26.995Z,16.61
2018-05-26T00:30:27.236Z,16.69
2018-05-26T00:31:27.465Z,16.61
2018-05-26T00:32:27.701Z,16.66
2018-05-26T00:33:27.926Z,16.68
2018-05-26T00:34:28.163Z,16.66
2018-05-26T00:35:28.391Z,16.71
2018-05-26T00:36:28.624Z,16.71
2018-05-26T00:37:28.856Z,16.65
2018-05-26T00:38:29.085Z,16.69
2018-05-26T00:39:29.318Z,16.66
2018-05-26T00:40:29.550Z,16.66
2018-05-26T00:41:29.784Z,16.66
2018-05-26T00:42:30.017Z,16.60
2018-05-26T00:43:30.245Z,16.57
2018-05-26T00:44:30.478Z,16.58
2018-05-26T00:45:30.703Z,16.57
2018-05-26T00:46:30.936Z,16.57
2018-05-26T00:47:31.163Z,16.66
2018-05-26T00:48:31.401Z,16.54
2018-05-26T00:49:31.622Z,16.56
2018-05-26T00:50:31.856Z,16.61
2018-05-26T00:51:32.080Z,16.51
2018-05-26T00:52:32.312Z,16.54
2018-05-26T00:53:32.545Z,16.47
2018-05-26T00:54:32.770Z,16.39
2018-05-26T00:55:33.001Z,16.51
2018-05-26T00:56:33.232Z,16.57
2018-05-26T00:57:33.465Z,16.58
2018-05-26T00:58:33.696Z,16.58
2018-05-26T00:59:33.919Z,16.56
2018-05-26T01:00:34.141Z,16.57
2018-05-26T01:01:34.373Z,16.65
2018-05-26T01:02:34.610Z,16.58
2018-05-26T01:03:34.840Z,16.51
2018-05-26T01:04:35.072Z,16.61
2018-05-26T01:05:35.299Z,16.57
2018-05-26T01:06:35.532Z,16.64
2018-05-26T01:07:35.773Z,16.54
2018-05-26T01:08:35.998Z,16.61
2018-05-26T01:09:36.227Z,16.57
2018-05-26T01:10:36.455Z,16.49
2018-05-26T01:11:36.684Z,16.36
2018-05-26T01:12:36.918Z,16.35
2018-05-26T01:13:37.154Z,16.17
2018-05-26T01:14:37.385Z,16.13
2018-05-26T01:15:37.614Z,16.20
2018-05-26T01:16:37.847Z,16.28
2018-05-26T01:17:38.081Z,16.38
2018-05-26T01:18:38.311Z,16.31
2018-05-26T01:19:38.537Z,16.28
2018-05-26T01:20:38.768Z,16.28
2018-05-26T01:21:39.006Z,16.21
2018-05-26T01:22:39.230Z,16.24
2018-05-26T01:23:39.459Z,16.21
2018-05-26T01:24:39.696Z,16.26
2018-05-26T01:25:39.921Z,16.15
2018-05-26T01:26:40.152Z,16.08
2018-05-26T01:27:40.382Z,16.20
2018-05-26T01:28:40.613Z,16.12
2018-05-26T01:29:40.845Z,16.17
2018-05-26T01:30:41.078Z,16.08
2018-05-26T01:31:41.311Z,16.17
2018-05-26T01:32:41.542Z,16.15
2018-05-26T01:33:41.773Z,16.10
2018-05-26T01:34:42.006Z,16.16
2018-05-26T01:35:42.239Z,16.16
2018-05-26T01:36:42.463Z,16.12
2018-05-26T01:37:42.692Z,16.04
2018-05-26T01:38:42.926Z,16.04
2018-05-26T01:39:43.157Z,15.98
2018-05-26T01:40:43.389Z,16.00
2018-05-26T01:41:43.618Z,15.91
2018-05-26T01:42:43.848Z,15.95
2018-05-26T01:43:44.082Z,15.77
2018-05-26T01:44:44.311Z,15.91
2018-05-26T01:45:44.540Z,15.91
2018-05-26T01:46:44.772Z,15.92
2018-05-26T01:47:45.002Z,15.92
2018-05-26T01:48:45.234Z,15.90
2018-05-26T01:49:45.461Z,15.79
2018-05-26T01:50:45.693Z,15.73
2018-05-26T01:51:45.925Z,15.62
2018-05-26T01:52:46.151Z,15.62
2018-05-26T01:53:46.384Z,15.73
2018-05-26T01:54:46.617Z,15.62
2018-05-26T01:55:46.848Z,15.68
2018-05-26T01:56:47.080Z,15.68
2018-05-26T01:57:48.198Z,15.58
2018-05-26T01:58:47.551Z,15.65
2018-05-26T01:59:47.784Z,15.61
2018-05-26T02:00:48.011Z,15.54
2018-05-26T02:01:48.245Z,15.55
2018-05-26T02:02:48.469Z,15.57
2018-05-26T02:03:48.701Z,15.62
2018-05-26T02:04:48.934Z,15.58
2018-05-26T02:05:49.163Z,15.55
2018-05-26T02:06:49.393Z,15.61
2018-05-26T02:07:49.624Z,15.64
2018-05-26T02:08:49.852Z,15.64
2018-05-26T02:09:50.084Z,15.76
2018-05-26T02:10:50.317Z,15.64
2018-05-26T02:11:50.548Z,15.75
2018-05-26T02:12:50.776Z,15.62
2018-05-26T02:13:51.016Z,15.64
2018-05-26T02:14:51.229Z,15.58
2018-05-26T02:15:51.464Z,15.43
2018-05-26T02:16:51.688Z,15.43
2018-05-26T02:17:51.918Z,15.57
2018-05-26T02:18:52.150Z,15.42
2018-05-26T02:19:52.379Z,15.47
2018-05-26T02:20:52.610Z,15.57
2018-05-26T02:21:52.844Z,15.51
2018-05-26T02:22:53.074Z,15.51
2018-05-26T02:23:53.305Z,15.58
2018-05-26T02:24:53.534Z,15.55
2018-05-26T02:25:53.764Z,15.47
2018-05-26T02:26:53.992Z,15.44
2018-05-26T02:27:54.225Z,15.33
2018-05-26T02:28:54.456Z,15.25
2018-05-26T02:29:54.687Z,15.40
2018-05-26T02:30:54.918Z,15.43
2018-05-26T02:31:55.148Z,15.51
2018-05-26T02:32:55.375Z,15.44
2018-05-26T02:33:55.605Z,15.54
2018-05-26T02:34:55.836Z,15.54
2018-05-26T02:35:56.064Z,15.52
2018-05-26T02:36:56.292Z,15.54
2018-05-26T02:37:56.523Z,15.47
2018-05-26T02:38:56.754Z,15.47
2018-05-26T02:39:56.986Z,15.57
2018-05-26T02:40:57.217Z,15.46
2018-05-26T02:41:57.445Z,15.47
2018-05-26T02:42:57.676Z,15.44
2018-05-26T02:43:57.906Z,15.37
2018-05-26T02:44:58.137Z,15.44
2018-05-26T02:45:58.369Z,15.39
2018-05-26T02:46:58.597Z,15.36
2018-05-26T02:47:58.829Z,15.39
2018-05-26T02:48:59.058Z,15.52
2018-05-26T02:49:59.284Z,15.40
2018-05-26T02:50:59.516Z,15.42
2018-05-26T02:51:59.748Z,15.47
2018-05-26T02:52:59.977Z,15.52
2018-05-26T02:54:00.210Z,15.44
2018-05-26T02:55:00.442Z,15.42
2018-05-26T02:56:00.669Z,15.44
2018-05-26T02:57:00.903Z,15.39
2018-05-26T02:58:01.127Z,15.36
2018-05-26T02:59:01.356Z,15.28
2018-05-26T03:00:01.590Z,15.31
2018-05-26T03:01:01.818Z,15.29
2018-05-26T03:02:02.052Z,15.29
2018-05-26T03:03:02.277Z,15.22
2018-05-26T03:04:02.506Z,15.28
2018-05-26T03:05:02.733Z,15.18
2018-05-26T03:06:02.962Z,15.07
2018-05-26T03:07:03.195Z,15.02
2018-05-26T03:08:03.421Z,15.07
2018-05-26T03:09:03.658Z,15.06
2018-05-26T03:10:03.883Z,15.06
2018-05-26T03:11:04.115Z,15.10
2018-05-26T03:12:04.341Z,15.18
2018-05-26T03:13:04.600Z,15.10
2018-05-26T03:14:04.824Z,15.15
2018-05-26T03:15:05.052Z,15.24
2018-05-26T03:16:05.280Z,15.22
2018-05-26T03:17:05.509Z,15.22
2018-05-26T03:18:05.742Z,15.22
2018-05-26T03:19:05.969Z,15.17
2018-05-26T03:20:06.198Z,15.27
2018-05-26T03:21:06.428Z,15.17
2018-05-26T03:22:06.662Z,15.10
2018-05-26T03:23:06.890Z,15.06
2018-05-26T03:24:07.120Z,15.06
2018-05-26T03:25:07.353Z,15.15
2018-05-26T03:26:07.580Z,15.17
2018-05-26T03:27:07.817Z,15.07
2018-05-26T03:28:08.043Z,15.07
2018-05-26T03:29:08.276Z,15.15
2018-05-26T03:30:08.507Z,15.14
2018-05-26T03:31:08.740Z,15.15
2018-05-26T03:32:08.968Z,15.18
2018-05-26T03:33:09.199Z,15.04
2018-05-26T03:34:09.432Z,15.07
2018-05-26T03:35:09.661Z,15.18
2018-05-26T03:36:09.888Z,15.21
2018-05-26T03:37:10.116Z,15.25
2018-05-26T03:38:10.349Z,15.21
2018-05-26T03:39:10.576Z,15.25
2018-05-26T03:40:10.805Z,15.28
2018-05-26T03:41:11.039Z,15.33
2018-05-26T03:42:11.288Z,15.29
2018-05-26T03:43:11.509Z,15.22
2018-05-26T03:44:11.709Z,15.15
2018-05-26T03:45:11.941Z,15.18
2018-05-26T03:46:12.171Z,15.15
2018-05-26T03:47:12.399Z,15.22
2018-05-26T03:48:12.628Z,15.27
2018-05-26T03:49:12.858Z,15.25
2018-05-26T03:50:13.090Z,15.49
2018-05-26T03:51:13.321Z,15.49
2018-05-26T03:52:13.556Z,15.47
2018-05-26T03:53:13.786Z,15.62
2018-05-26T03:54:14.015Z,15.73
2018-05-26T03:55:14.246Z,16.01
2018-05-26T03:56:14.477Z,16.12
2018-05-26T03:57:14.706Z,15.98
2018-05-26T03:58:14.940Z,15.98
2018-05-26T03:59:15.172Z,16.09
2018-05-26T04:00:15.397Z,16.12
2018-05-26T04:01:15.631Z,16.33
2018-05-26T04:02:15.857Z,16.42
2018-05-26T04:03:16.088Z,16.76
2018-05-26T04:04:16.317Z,16.90
2018-05-26T04:05:16.549Z,17.01
2018-05-26T04:06:16.781Z,17.24
2018-05-26T04:07:17.011Z,17.27
2018-05-26T04:08:17.245Z,17.39
2018-05-26T04:09:17.476Z,17.41
2018-05-26T04:10:17.708Z,17.22
2018-05-26T04:11:17.953Z,17.33
2018-05-26T04:12:18.168Z,17.59
2018-05-26T04:13:18.401Z,17.82
2018-05-26T04:14:18.634Z,18.18
2018-05-26T04:15:19.724Z,18.22
2018-05-26T04:16:19.080Z,18.22
2018-05-26T04:17:19.307Z,18.44
2018-05-26T04:18:19.539Z,18.62
2018-05-26T04:19:19.768Z,18.83
2018-05-26T04:20:20.001Z,18.98
2018-05-26T04:21:20.234Z,19.07
2018-05-26T04:22:20.466Z,19.31
2018-05-26T04:23:20.698Z,19.40
2018-05-26T04:24:20.936Z,19.41
2018-05-26T04:25:21.174Z,19.52
2018-05-26T04:26:21.395Z,19.54
2018-05-26T04:27:21.628Z,19.67
2018-05-26T04:28:21.858Z,19.73
2018-05-26T04:29:22.096Z,19.85
2018-05-26T04:30:22.324Z,20.04
2018-05-26T04:31:22.562Z,20.50
2018-05-26T04:32:22.789Z,20.74
2018-05-26T04:33:23.026Z,21.00
2018-05-26T04:34:23.261Z,21.29
2018-05-26T04:35:23.517Z,21.55
2018-05-26T04:36:23.725Z,21.62
2018-05-26T04:37:23.958Z,21.95
2018-05-26T04:38:24.195Z,22.18
2018-05-26T04:39:24.425Z,22.41
2018-05-26T04:40:24.656Z,22.66
2018-05-26T04:41:24.888Z,22.73
2018-05-26T04:42:25.121Z,22.93
2018-05-26T04:43:25.356Z,23.27
2018-05-26T04:44:25.592Z,23.47
2018-05-26T04:45:25.822Z,23.54
2018-05-26T04:46:26.076Z,23.54
2018-05-26T04:47:26.295Z,23.50
2018-05-26T04:48:26.530Z,23.68
2018-05-26T04:49:26.763Z,23.61
2018-05-26T04:50:27.002Z,23.66
2018-05-26T04:51:27.237Z,23.77
2018-05-26T04:52:27.475Z,23.78
2018-05-26T04:53:27.706Z,23.65
2018-05-26T04:54:27.939Z,23.65
2018-05-26T04:55:28.181Z,23.84
2018-05-26T04:56:28.418Z,23.47
2018-05-26T04:57:28.654Z,23.99
2018-05-26T04:58:28.887Z,23.73
2018-05-26T04:59:29.121Z,23.10
2018-05-26T05:00:29.359Z,22.54
2018-05-26T05:01:29.596Z,22.81
2018-05-26T05:02:29.830Z,23.27
2018-05-26T05:03:30.069Z,23.15
2018-05-26T05:04:30.308Z,22.70
2018-05-26T05:05:30.542Z,22.54
2018-05-26T05:06:30.780Z,22.53
2018-05-26T05:07:31.015Z,22.70
2018-05-26T05:08:31.253Z,22.68
2018-05-26T05:09:31.491Z,23.02
2018-05-26T05:10:31.727Z,22.66
2018-05-26T05:11:31.964Z,22.90
2018-05-26T05:12:32.206Z,22.66
2018-05-26T05:13:32.437Z,22.75
2018-05-26T05:14:32.673Z,22.99
2018-05-26T05:15:32.910Z,23.34
2018-05-26T05:16:33.147Z,23.54
2018-05-26T05:17:33.388Z,23.84
2018-05-26T05:18:33.620Z,24.13
2018-05-26T05:19:33.853Z,24.76
2018-05-26T05:20:34.093Z,25.22
2018-05-26T05:21:34.330Z,25.77
2018-05-26T05:22:34.575Z,25.81
2018-05-26T05:23:34.802Z,25.85
2018-05-26T05:24:35.039Z,25.85
2018-05-26T05:25:35.276Z,25.83
2018-05-26T05:26:35.513Z,26.02
2018-05-26T05:27:35.751Z,26.26
2018-05-26T05:28:35.988Z,26.77
2018-05-26T05:29:36.226Z,26.99
2018-05-26T05:30:36.464Z,27.17
2018-05-26T05:31:36.705Z,27.44
2018-05-26T05:32:36.953Z,27.82
2018-05-26T05:33:37.184Z,28.01
2018-05-26T05:34:37.416Z,28.04
2018-05-26T05:35:37.657Z,28.04
2018-05-26T05:36:37.890Z,28.15
2018-05-26T05:37:38.154Z,28.14
2018-05-26T05:38:38.365Z,28.35
2018-05-26T05:39:38.604Z,28.37
2018-05-26T05:40:38.841Z,28.49
2018-05-26T05:41:39.083Z,28.42
2018-05-26T05:42:39.317Z,28.42
2018-05-26T05:43:39.559Z,28.02
2018-05-26T05:44:39.799Z,28.01
2018-05-26T05:45:40.040Z,28.02
2018-05-26T05:46:40.279Z,27.92
2018-05-26T05:47:40.522Z,28.19
2018-05-26T05:48:40.759Z,27.83
2018-05-26T05:49:40.995Z,28.08
2018-05-26T05:50:41.235Z,27.98
2018-05-26T05:51:41.475Z,27.96
2018-05-26T05:52:41.706Z,28.12
2018-05-26T05:53:41.945Z,27.85
2018-05-26T05:54:42.184Z,28.04
2018-05-26T05:55:42.425Z,28.11
2018-05-26T05:56:42.663Z,28.49
2018-05-26T05:57:42.904Z,29.17
2018-05-26T05:58:43.142Z,29.24
2018-05-26T05:59:43.385Z,29.81
2018-05-26T06:00:43.629Z,29.98
2018-05-26T06:01:43.864Z,29.72
2018-05-26T06:02:44.109Z,29.90
2018-05-26T06:03:44.353Z,29.68
2018-05-26T06:04:44.585Z,30.25
2018-05-26T06:05:44.827Z,30.70
2018-05-26T06:06:45.071Z,30.91
2018-05-26T06:07:45.311Z,31.29
2018-05-26T06:08:45.554Z,31.37
2018-05-26T06:09:45.792Z,31.20
2018-05-26T06:10:46.033Z,29.97
2018-05-26T06:11:46.279Z,29.86
2018-05-26T06:12:46.514Z,29.50
2018-05-26T06:13:46.754Z,29.98
2018-05-26T06:14:46.998Z,30.21
2018-05-26T06:15:47.233Z,29.68
2018-05-26T06:16:47.475Z,29.19
2018-05-26T06:17:47.717Z,29.02
2018-05-26T06:18:47.959Z,29.49
2018-05-26T06:19:48.194Z,29.78
2018-05-26T06:20:48.451Z,29.91
2018-05-26T06:21:48.686Z,30.35
2018-05-26T06:22:48.928Z,30.62
2018-05-26T06:23:49.163Z,30.31
2018-05-26T06:24:49.405Z,30.27
2018-05-26T06:25:49.651Z,30.54
2018-05-26T06:26:49.882Z,30.83
2018-05-26T06:27:50.125Z,31.05
2018-05-26T06:28:50.364Z,31.37
2018-05-26T06:29:50.602Z,31.61
2018-05-26T06:30:50.849Z,31.93
2018-05-26T06:31:51.090Z,31.97
2018-05-26T06:32:51.324Z,31.66
2018-05-26T06:33:51.563Z,31.31
2018-05-26T06:34:51.803Z,30.48
2018-05-26T06:35:52.088Z,30.47
2018-05-26T06:36:52.285Z,30.77
2018-05-26T06:37:52.527Z,30.50
2018-05-26T06:38:52.771Z,30.35
2018-05-26T06:39:53.009Z,29.61
2018-05-26T06:40:53.248Z,30.46
2018-05-26T06:41:53.489Z,30.27
2018-05-26T06:42:53.737Z,30.25
2018-05-26T06:43:53.967Z,30.08
2018-05-26T06:44:54.212Z,30.31
2018-05-26T06:45:54.453Z,30.46
2018-05-26T06:46:54.696Z,30.75
2018-05-26T06:47:54.929Z,30.63
2018-05-26T06:48:55.168Z,30.75
2018-05-26T06:49:55.411Z,30.08
2018-05-26T06:50:55.653Z,30.00
2018-05-26T06:51:55.893Z,29.86
2018-05-26T06:52:56.133Z,29.73
2018-05-26T06:53:56.383Z,29.35
2018-05-26T06:54:56.613Z,29.01
2018-05-26T06:55:56.852Z,28.44
2018-05-26T06:56:57.096Z,28.07
2018-05-26T06:57:57.332Z,27.86
2018-05-26T06:58:57.572Z,27.45
2018-05-26T06:59:57.815Z,27.25
2018-05-26T07:00:58.051Z,26.88
2018-05-26T07:01:58.288Z,26.73
2018-05-26T07:02:58.525Z,26.43
2018-05-26T07:03:58.767Z,26.10
2018-05-26T07:04:59.011Z,26.13
2018-05-26T07:05:59.243Z,26.26
2018-05-26T07:06:59.481Z,26.05
2018-05-26T07:07:59.720Z,25.75
2018-05-26T07:08:59.967Z,25.66
2018-05-26T07:10:00.199Z,25.66
2018-05-26T07:11:00.440Z,25.68
2018-05-26T07:12:00.682Z,25.23
2018-05-26T07:13:00.916Z,25.35
2018-05-26T07:14:01.155Z,25.31
2018-05-26T07:15:01.396Z,24.86
2018-05-26T07:16:01.642Z,24.77
2018-05-26T07:17:01.875Z,24.98
2018-05-26T07:18:02.117Z,24.84
2018-05-26T07:19:02.353Z,24.73
2018-05-26T07:20:02.592Z,24.73
2018-05-26T07:21:02.833Z,24.68
2018-05-26T07:22:03.071Z,24.58
2018-05-26T07:23:03.308Z,24.57
2018-05-26T07:24:03.548Z,24.61
2018-05-26T07:25:03.789Z,24.80
2018-05-26T07:26:04.026Z,24.92
2018-05-26T07:27:04.268Z,25.21
2018-05-26T07:28:04.507Z,25.18
2018-05-26T07:29:04.743Z,25.17
2018-05-26T07:30:04.980Z,25.28
2018-05-26T07:31:05.216Z,25.36
2018-05-26T07:32:05.449Z,25.36
2018-05-26T07:33:05.687Z,25.47
2018-05-26T07:34:05.923Z,25.59
2018-05-26T07:35:06.169Z,25.55
2018-05-26T07:36:06.398Z,25.60
2018-05-26T07:37:06.634Z,25.60
2018-05-26T07:38:06.869Z,25.55
2018-05-26T07:39:07.110Z,25.51
2018-05-26T07:40:07.342Z,25.72
2018-05-26T07:41:07.580Z,25.70
2018-05-26T07:42:07.818Z,25.87
2018-05-26T07:43:08.052Z,25.88
2018-05-26T07:44:08.290Z,25.95
2018-05-26T07:45:08.529Z,26.02
2018-05-26T07:46:08.770Z,26.00
2018-05-26T07:47:09.043Z,25.96
2018-05-26T07:48:09.247Z,26.09
2018-05-26T07:49:09.485Z,26.13
2018-05-26T07:50:09.720Z,26.06
2018-05-26T07:51:09.964Z,26.19
2018-05-26T07:52:10.200Z,26.19
2018-05-26T07:53:10.488Z,26.10
2018-05-26T07:54:10.673Z,26.26
2018-05-26T07:55:10.908Z,26.07
2018-05-26T07:56:11.147Z,26.16
2018-05-26T07:57:11.387Z,26.31
2018-05-26T07:58:11.621Z,26.15
2018-05-26T07:59:11.898Z,26.19
2018-05-26T08:00:12.150Z,26.28
2018-05-26T08:01:12.334Z,26.25
2018-05-26T08:02:12.573Z,25.88
2018-05-26T08:03:12.809Z,25.85
2018-05-26T08:04:13.043Z,25.75
2018-05-26T08:05:13.281Z,25.68
2018-05-26T08:06:13.520Z,25.73
2018-05-26T08:07:13.761Z,25.78
2018-05-26T08:08:13.998Z,25.75
2018-05-26T08:09:14.232Z,25.87
2018-05-26T08:10:14.466Z,25.95
2018-05-26T08:11:14.704Z,25.95
2018-05-26T08:12:14.940Z,26.05
2018-05-26T08:13:15.173Z,25.87
2018-05-26T08:14:15.419Z,25.90
2018-05-26T08:15:15.649Z,25.90
2018-05-26T08:16:15.894Z,25.84
2018-05-26T08:17:16.147Z,26.00
2018-05-26T08:18:16.366Z,25.87
2018-05-26T08:19:16.604Z,25.85
2018-05-26T08:20:16.838Z,25.93
2018-05-26T08:21:17.076Z,25.87
2018-05-26T08:22:17.309Z,26.02
2018-05-26T08:23:17.542Z,26.03
2018-05-26T08:24:17.779Z,26.09
2018-05-26T08:25:18.035Z,26.10
2018-05-26T08:26:18.288Z,26.29
2018-05-26T08:27:18.550Z,26.18
2018-05-26T08:28:18.762Z,26.15
2018-05-26T08:29:19.000Z,26.19
2018-05-26T08:30:19.235Z,26.22
2018-05-26T08:31:19.472Z,26.09
2018-05-26T08:32:19.707Z,25.95
2018-05-26T08:33:19.944Z,25.95
2018-05-26T08:34:20.180Z,26.06
2018-05-26T08:35:20.416Z,26.06
2018-05-26T08:36:20.653Z,25.96
2018-05-26T08:37:20.888Z,26.06
2018-05-26T08:38:21.123Z,26.23
2018-05-26T08:39:21.365Z,26.02
2018-05-26T08:40:21.599Z,25.88
2018-05-26T08:41:21.830Z,25.90
2018-05-26T08:42:22.067Z,25.77
2018-05-26T08:43:22.307Z,25.91
2018-05-26T08:44:22.540Z,25.85
2018-05-26T08:45:22.778Z,25.75
2018-05-26T08:46:23.015Z,25.85
2018-05-26T08:47:23.257Z,25.93
2018-05-26T08:48:23.490Z,26.10
2018-05-26T08:49:23.730Z,26.15
2018-05-26T08:50:23.966Z,26.25
2018-05-26T08:51:24.206Z,26.37
2018-05-26T08:52:24.443Z,26.36
2018-05-26T08:53:24.681Z,26.40
2018-05-26T08:54:24.918Z,26.34
2018-05-26T08:55:25.154Z,26.45
2018-05-26T08:56:25.392Z,26.47
2018-05-26T08:57:25.632Z,26.68
2018-05-26T08:58:25.869Z,26.59
2018-05-26T08:59:26.117Z,26.68
2018-05-26T09:00:26.343Z,26.68
2018-05-26T09:01:26.580Z,26.75
2018-05-26T09:02:26.814Z,26.85
2018-05-26T09:03:27.051Z,26.97
2018-05-26T09:04:27.298Z,26.96
2018-05-26T09:05:27.540Z,27.08
2018-05-26T09:06:27.794Z,27.05
2018-05-26T09:07:28.016Z,27.12
2018-05-26T09:08:28.247Z,27.12
2018-05-26T09:09:28.486Z,27.32
2018-05-26T09:10:28.716Z,27.21
2018-05-26T09:11:28.956Z,27.12
2018-05-26T09:12:29.195Z,27.18
2018-05-26T09:13:29.440Z,27.18
2018-05-26T09:14:29.670Z,27.21
2018-05-26T09:15:29.905Z,27.17
2018-05-26T09:16:30.143Z,27.10
2018-05-26T09:17:30.382Z,27.02
2018-05-26T09:18:30.616Z,27.18
2018-05-26T09:19:30.852Z,27.21
2018-05-26T09:20:31.089Z,27.22
2018-05-26T09:21:31.331Z,27.08
2018-05-26T09:22:31.562Z,27.27
2018-05-26T09:23:31.802Z,27.22
2018-05-26T09:24:32.040Z,27.35
2018-05-26T09:25:32.330Z,27.35
2018-05-26T09:26:32.515Z,27.33
2018-05-26T09:27:32.753Z,27.45
2018-05-26T09:28:32.993Z,27.54
2018-05-26T09:29:33.230Z,27.68
2018-05-26T09:30:33.461Z,27.67
2018-05-26T09:31:33.706Z,27.83
2018-05-26T09:32:33.947Z,27.85
2018-05-26T09:33:34.182Z,27.82
2018-05-26T09:34:34.420Z,27.77
2018-05-26T09:35:34.654Z,27.52
2018-05-26T09:36:34.894Z,27.55
2018-05-26T09:37:35.128Z,27.54
2018-05-26T09:38:35.367Z,27.54
2018-05-26T09:39:35.603Z,27.55
2018-05-26T09:40:35.840Z,27.63
2018-05-26T09:41:36.081Z,27.80
2018-05-26T09:42:36.308Z,27.82
2018-05-26T09:43:36.610Z,27.82
2018-05-26T09:44:36.788Z,27.70
2018-05-26T09:45:37.023Z,27.77
2018-05-26T09:46:37.263Z,27.86
2018-05-26T09:47:37.496Z,27.87
2018-05-26T09:48:37.734Z,27.86
2018-05-26T09:49:37.972Z,27.92
2018-05-26T09:50:38.213Z,27.93
2018-05-26T09:51:38.461Z,27.98
2018-05-26T09:52:38.686Z,28.02
2018-05-26T09:53:38.920Z,27.89
2018-05-26T09:54:39.154Z,27.92
2018-05-26T09:55:39.396Z,27.95
2018-05-26T09:56:39.633Z,28.05
2018-05-26T09:57:39.871Z,28.15
2018-05-26T09:58:40.110Z,28.23
2018-05-26T09:59:40.344Z,28.30
2018-05-26T10:00:40.582Z,28.30
2018-05-26T10:01:40.819Z,28.20
2018-05-26T10:02:41.058Z,28.14
2018-05-26T10:03:41.299Z,28.07
2018-05-26T10:04:41.537Z,28.14
2018-05-26T10:05:41.777Z,28.04
2018-05-26T10:06:42.007Z,28.19
2018-05-26T10:07:42.248Z,28.32
2018-05-26T10:08:42.488Z,28.26
2018-05-26T10:09:42.728Z,28.37
2018-05-26T10:10:42.970Z,28.41
2018-05-26T10:11:43.207Z,28.35
2018-05-26T10:12:43.451Z,28.19
2018-05-26T10:13:43.688Z,28.39
2018-05-26T10:14:43.929Z,28.45
2018-05-26T10:15:44.174Z,28.41
2018-05-26T10:16:44.406Z,28.44
2018-05-26T10:17:44.644Z,28.37
2018-05-26T10:18:44.895Z,28.20
2018-05-26T10:19:45.121Z,28.02
2018-05-26T10:20:45.360Z,27.98
2018-05-26T10:21:45.599Z,27.96
2018-05-26T10:22:45.837Z,27.92
2018-05-26T10:23:46.076Z,28.04
2018-05-26T10:24:46.315Z,27.86
2018-05-26T10:25:46.552Z,27.65
2018-05-26T10:26:46.792Z,27.59
2018-05-26T10:27:47.042Z,27.64
2018-05-26T10:28:47.270Z,27.63
2018-05-26T10:29:47.509Z,27.65
2018-05-26T10:30:47.746Z,27.55
2018-05-26T10:31:47.984Z,27.63
2018-05-26T10:32:48.243Z,27.64
2018-05-26T10:33:48.484Z,27.71
2018-05-26T10:34:48.715Z,27.77
2018-05-26T10:35:48.954Z,28.00
2018-05-26T10:36:49.192Z,28.08
2018-05-26T10:37:49.439Z,28.11
2018-05-26T10:38:49.670Z,28.05
2018-05-26T10:39:49.905Z,28.23
2018-05-26T10:40:50.141Z,28.15
2018-05-26T10:41:50.381Z,28.20
2018-05-26T10:42:50.622Z,28.12
2018-05-26T10:43:50.860Z,28.10
2018-05-26T10:44:51.099Z,28.19
2018-05-26T10:45:51.338Z,28.19
2018-05-26T10:46:51.576Z,28.33
2018-05-26T10:47:51.813Z,28.30
2018-05-26T10:48:52.051Z,28.44
2018-05-26T10:49:52.288Z,28.32
2018-05-26T10:50:52.529Z,28.35
2018-05-26T10:51:52.766Z,28.32
2018-05-26T10:52:53.007Z,28.23
2018-05-26T10:53:53.247Z,28.29
2018-05-26T10:54:53.479Z,28.19
2018-05-26T10:55:53.771Z,28.08
2018-05-26T10:56:53.955Z,28.17
2018-05-26T10:57:54.191Z,28.12
2018-05-26T10:58:54.432Z,28.14
2018-05-26T10:59:54.676Z,28.10
2018-05-26T11:00:54.904Z,28.07
2018-05-26T11:01:55.146Z,28.00
2018-05-26T11:02:55.387Z,27.85
2018-05-26T11:03:55.623Z,27.90
2018-05-26T11:04:55.864Z,27.87
2018-05-26T11:05:56.117Z,27.87
2018-05-26T11:06:56.344Z,28.01
2018-05-26T11:07:56.591Z,27.98
2018-05-26T11:08:56.821Z,27.87
2018-05-26T11:09:57.059Z,27.73
2018-05-26T11:10:57.295Z,27.71
2018-05-26T11:11:57.536Z,27.67
2018-05-26T11:12:57.776Z,27.65
2018-05-26T11:13:58.017Z,27.51
2018-05-26T11:14:58.250Z,27.47
2018-05-26T11:15:58.495Z,27.32
2018-05-26T11:16:58.728Z,27.35
2018-05-26T11:17:59.113Z,27.42
2018-05-26T11:18:59.214Z,27.58
2018-05-26T11:19:59.442Z,27.63
2018-05-26T11:20:59.680Z,27.82
2018-05-26T11:21:59.919Z,27.90
2018-05-26T11:23:00.159Z,28.04
2018-05-26T11:24:00.591Z,28.02
2018-05-26T11:25:00.637Z,28.04
2018-05-26T11:26:00.967Z,28.23
2018-05-26T11:27:01.117Z,28.32
2018-05-26T11:28:01.351Z,28.35
2018-05-26T11:29:01.590Z,28.39
2018-05-26T11:30:01.827Z,28.54
2018-05-26T11:31:02.108Z,28.59
2018-05-26T11:32:02.308Z,28.45
2018-05-26T11:33:02.549Z,28.47
2018-05-26T11:34:02.787Z,28.47
2018-05-26T11:35:03.020Z,28.74
2018-05-26T11:36:03.257Z,28.60
2018-05-26T11:37:03.496Z,28.60
2018-05-26T11:38:03.735Z,28.69
2018-05-26T11:39:03.975Z,28.72
2018-05-26T11:40:04.215Z,28.70
2018-05-26T11:41:04.455Z,28.59
2018-05-26T11:42:04.695Z,28.66
2018-05-26T11:43:04.938Z,28.76
2018-05-26T11:44:05.175Z,28.52
2018-05-26T11:45:05.413Z,28.63
2018-05-26T11:46:05.651Z,28.48
2018-05-26T11:47:05.889Z,28.38
2018-05-26T11:48:06.127Z,28.15
2018-05-26T11:49:06.365Z,28.11
2018-05-26T11:50:06.608Z,27.98
2018-05-26T11:51:06.844Z,28.02
2018-05-26T11:52:07.089Z,28.08
2018-05-26T11:53:07.331Z,28.05
2018-05-26T11:54:07.568Z,28.12
2018-05-26T11:55:07.804Z,27.95
2018-05-26T11:56:08.043Z,28.17
2018-05-26T11:57:08.281Z,28.33
2018-05-26T11:58:08.523Z,28.42
2018-05-26T11:59:08.757Z,28.60
2018-05-26T12:00:08.994Z,28.60
2018-05-26T12:01:09.233Z,28.75
2018-05-26T12:02:09.514Z,28.85
2018-05-26T12:03:09.707Z,28.96
2018-05-26T12:04:09.943Z,28.93
2018-05-26T12:05:10.177Z,29.01
2018-05-26T12:06:10.410Z,29.05
2018-05-26T12:07:10.649Z,29.05
2018-05-26T12:08:10.887Z,28.79
2018-05-26T12:09:11.126Z,28.75
2018-05-26T12:10:11.371Z,28.72
2018-05-26T12:11:11.626Z,28.54
2018-05-26T12:12:11.841Z,28.54
2018-05-26T12:13:12.082Z,28.63
2018-05-26T12:14:12.320Z,28.66
2018-05-26T12:15:12.559Z,28.63
2018-05-26T12:16:12.805Z,28.63
2018-05-26T12:17:13.033Z,28.56
2018-05-26T12:18:13.278Z,28.51
2018-05-26T12:19:13.516Z,28.52
2018-05-26T12:20:13.749Z,28.38
2018-05-26T12:21:13.984Z,28.59
2018-05-26T12:22:14.226Z,28.82
2018-05-26T12:23:14.465Z,28.94
2018-05-26T12:24:14.711Z,29.13
2018-05-26T12:25:14.945Z,29.16
2018-05-26T12:26:15.183Z,29.32
2018-05-26T12:27:15.427Z,29.31
2018-05-26T12:28:15.659Z,29.35
2018-05-26T12:29:15.897Z,29.12
2018-05-26T12:30:16.141Z,29.41
2018-05-26T12:31:16.376Z,29.44
2018-05-26T12:32:16.610Z,29.54
2018-05-26T12:33:16.849Z,29.69
2018-05-26T12:34:17.088Z,29.69
2018-05-26T12:35:17.323Z,29.54
2018-05-26T12:36:17.561Z,29.66
2018-05-26T12:37:17.797Z,29.72
2018-05-26T12:38:18.037Z,29.79
2018-05-26T12:39:18.278Z,29.94
2018-05-26T12:40:18.508Z,29.88
2018-05-26T12:41:18.749Z,29.97
2018-05-26T12:42:18.984Z,30.09
2018-05-26T12:43:19.227Z,30.02
2018-05-26T12:44:19.463Z,29.87
2018-05-26T12:45:19.771Z,29.63
2018-05-26T12:46:19.940Z,29.36
2018-05-26T12:47:20.178Z,29.47
2018-05-26T12:48:20.411Z,29.44
2018-05-26T12:49:20.648Z,29.27
2018-05-26T12:50:20.892Z,29.27
2018-05-26T12:51:21.128Z,29.14
2018-05-26T12:52:21.367Z,29.04
2018-05-26T12:53:21.601Z,29.10
2018-05-26T12:54:21.840Z,28.97
2018-05-26T12:55:22.085Z,28.91